Time;durP1;ratioP1;P1;durP2;ratioP2;P2;SDS_P1;SDS_P2;PMS_P1;PMS_P2;Temp;Humidity;BMP_temperature;BMP_pressure;BME280_temperature;BME280_humidity;BME280_pressure;Samples;Min_cycle;Max_cycle;Signal;HPM_P1;HPM_P2
2023/12/31 00:00:27;;;;;;;5.07;4.40;;;6.90;99.90;;;;;;5045091;28;20526;-88
2023/12/31 00:02:53;;;;;;;5.60;4.80;;;6.70;99.90;;;;;;5044630;28;20480;-88
2023/12/31 00:05:19;;;;;;;5.77;5.07;;;7.10;99.90;;;;;;5041478;28;20490;-88
2023/12/31 00:07:45;;;;;;;6.15;5.53;;;7.20;99.90;;;;;;5044454;28;20174;-89
2023/12/31 00:10:11;;;;;;;5.60;4.63;;;6.70;99.90;;;;;;5046347;28;20192;-88
2023/12/31 00:12:36;;;;;;;5.70;4.80;;;6.70;99.90;;;;;;5045071;28;20475;-89
2023/12/31 00:15:05;;;;;;;8.20;5.00;;;7.00;99.90;;;;;;5045755;28;20602;-87
2023/12/31 00:17:31;;;;;;;5.32;4.47;;;6.60;99.90;;;;;;5047582;28;20255;-89
2023/12/31 00:20:00;;;;;;;5.20;4.70;;;6.80;99.90;;;;;;5048744;28;20265;-87
2023/12/31 00:22:25;;;;;;;7.55;5.60;;;6.80;99.90;;;;;;5054288;28;20192;-88
2023/12/31 00:24:54;;;;;;;5.93;4.93;;;6.20;99.90;;;;;;5048213;28;20200;-87
2023/12/31 00:27:19;;;;;;;6.05;5.38;;;6.60;99.90;;;;;;5048018;28;20189;-88
2023/12/31 00:29:45;;;;;;;5.27;4.30;;;6.40;99.90;;;;;;5045679;28;20209;-87
2023/12/31 00:32:11;;;;;;;6.17;4.90;;;6.40;99.90;;;;;;5047421;28;20280;-87
2023/12/31 00:34:37;;;;;;;5.33;4.63;;;6.30;99.90;;;;;;5045425;28;20999;-87
2023/12/31 00:37:03;;;;;;;6.57;5.03;;;6.60;99.90;;;;;;5048200;28;20210;-88
2023/12/31 00:39:29;;;;;;;5.32;4.72;;;6.30;99.90;;;;;;5049247;28;20678;-87
2023/12/31 00:41:55;;;;;;;5.63;4.80;;;6.70;99.90;;;;;;5049898;28;20188;-89
2023/12/31 00:44:20;;;;;;;5.47;4.60;;;6.10;99.90;;;;;;5045716;28;20251;-88
2023/12/31 00:46:46;;;;;;;4.83;4.33;;;6.20;99.90;;;;;;5050115;28;20246;-89
2023/12/31 00:49:11;;;;;;;5.53;4.80;;;6.50;99.90;;;;;;5048245;28;20285;-88
2023/12/31 00:51:37;;;;;;;4.70;4.30;;;6.30;99.90;;;;;;5046319;28;20190;-89
2023/12/31 00:54:02;;;;;;;7.00;5.17;;;6.30;99.90;;;;;;5046958;28;20209;-89
2023/12/31 00:56:28;;;;;;;5.93;4.43;;;6.20;99.90;;;;;;5047427;28;20182;-88
2023/12/31 00:58:53;;;;;;;5.03;4.10;;;6.00;99.90;;;;;;5055574;28;20202;-87
2023/12/31 01:01:19;;;;;;;6.40;5.07;;;6.00;99.90;;;;;;5066890;28;20201;-88
2023/12/31 01:03:44;;;;;;;5.90;4.47;;;6.00;99.90;;;;;;5049607;28;20194;-88
2023/12/31 01:06:10;;;;;;;5.13;4.60;;;6.30;99.90;;;;;;5046413;28;20217;-88
2023/12/31 01:08:36;;;;;;;4.93;4.30;;;6.00;99.90;;;;;;5044917;28;20190;-87
2023/12/31 01:11:02;;;;;;;4.50;4.03;;;6.50;99.90;;;;;;5050767;28;20213;-87
2023/12/31 01:13:27;;;;;;;5.18;4.57;;;6.40;99.90;;;;;;5044554;28;20600;-88
2023/12/31 01:15:53;;;;;;;4.73;4.33;;;6.10;99.90;;;;;;5046770;28;20201;-87
2023/12/31 01:18:19;;;;;;;4.50;4.03;;;5.40;99.90;;;;;;5045835;28;20459;-87
2023/12/31 01:20:45;;;;;;;5.85;4.50;;;5.80;99.90;;;;;;5047130;28;20181;-87
2023/12/31 01:23:10;;;;;;;4.60;4.20;;;5.90;99.90;;;;;;5043648;28;20694;-87
2023/12/31 01:25:36;;;;;;;4.80;4.20;;;5.90;99.90;;;;;;5045054;28;20251;-87
2023/12/31 01:28:02;;;;;;;4.57;3.97;;;5.70;99.90;;;;;;5050011;28;20209;-89
2023/12/31 01:30:28;;;;;;;4.40;4.00;;;5.70;99.90;;;;;;5046813;28;20192;-89
2023/12/31 01:32:54;;;;;;;5.97;4.53;;;5.70;99.90;;;;;;5046422;28;20193;-89
2023/12/31 01:35:19;;;;;;;5.07;4.30;;;5.80;99.90;;;;;;5047002;28;20259;-89
2023/12/31 01:37:46;;;;;;;4.70;4.30;;;5.20;99.90;;;;;;5044409;28;20583;-87
2023/12/31 01:40:11;;;;;;;4.75;4.25;;;5.60;99.90;;;;;;5047377;28;20181;-88
2023/12/31 01:42:37;;;;;;;4.80;4.40;;;6.10;99.90;;;;;;5046641;28;20178;-89
2023/12/31 01:45:04;;;;;;;4.35;3.75;;;5.70;99.90;;;;;;5047559;28;21059;-89
2023/12/31 01:47:34;;;;;;;6.07;4.80;;;5.60;99.90;;;;;;5044846;28;20189;-86
2023/12/31 01:50:02;;;;;;;5.22;4.50;;;5.70;99.90;;;;;;5045320;28;20219;-88
2023/12/31 01:52:28;;;;;;;5.28;4.28;;;5.60;99.90;;;;;;5046139;28;20193;-90
2023/12/31 01:54:54;;;;;;;5.80;4.70;;;6.00;99.90;;;;;;5045068;28;20206;-88
2023/12/31 01:57:28;;;;;;;5.30;4.80;;;5.20;99.90;;;;;;5042609;28;20475;-89
2023/12/31 01:59:55;;;;;;;5.45;4.57;;;6.00;99.90;;;;;;5041445;28;20190;-89
2023/12/31 02:02:22;;;;;;;5.82;4.55;;;5.50;99.90;;;;;;5048342;28;20657;-87
2023/12/31 02:04:48;;;;;;;4.80;4.20;;;5.70;99.90;;;;;;5046319;28;20197;-87
2023/12/31 02:07:14;;;;;;;5.50;4.45;;;5.50;99.90;;;;;;5044878;28;20335;-88
2023/12/31 02:09:39;;;;;;;4.50;4.10;;;5.60;99.90;;;;;;5045883;28;20185;-88
2023/12/31 02:12:06;;;;;;;5.80;3.93;;;5.50;99.90;;;;;;5046128;28;20188;-87
2023/12/31 02:14:31;;;;;;;5.63;4.60;;;5.50;99.90;;;;;;5047093;28;20208;-87
2023/12/31 02:16:57;;;;;;;5.03;4.23;;;5.90;99.90;;;;;;5049904;28;20205;-87
2023/12/31 02:19:23;;;;;;;5.13;4.43;;;5.40;99.90;;;;;;5047989;28;20579;-89
2023/12/31 02:21:48;;;;;;;4.68;4.28;;;5.50;99.90;;;;;;5046986;28;20185;-88
2023/12/31 02:24:18;;;;;;;5.57;4.67;;;5.30;99.90;;;;;;5044012;28;20304;-88
2023/12/31 02:26:43;;;;;;;6.72;5.30;;;5.80;99.90;;;;;;5045508;28;20714;-87
2023/12/31 02:29:09;;;;;;;4.77;4.30;;;5.40;99.90;;;;;;5044391;28;20268;-87
2023/12/31 02:31:35;;;;;;;4.47;4.07;;;5.50;99.90;;;;;;5045439;28;20185;-88
2023/12/31 02:34:00;;;;;;;7.17;4.13;;;5.60;99.90;;;;;;5047091;28;20292;-88
2023/12/31 02:36:26;;;;;;;4.87;4.47;;;4.90;99.90;;;;;;5049550;28;20181;-88
2023/12/31 02:38:51;;;;;;;5.83;4.40;;;5.40;99.90;;;;;;5044785;28;20213;-87
2023/12/31 02:41:17;;;;;;;4.80;4.40;;;5.40;99.90;;;;;;5047366;28;20185;-87
2023/12/31 02:43:44;;;;;;;4.30;3.90;;;5.50;99.90;;;;;;5046312;28;20592;-89
2023/12/31 02:46:09;;;;;;;5.07;4.30;;;5.50;99.90;;;;;;5059497;28;20208;-87
2023/12/31 02:48:35;;;;;;;5.10;4.60;;;5.90;99.90;;;;;;5046803;28;20654;-89
2023/12/31 02:51:01;;;;;;;4.27;3.87;;;5.80;99.90;;;;;;5045714;28;20242;-88
2023/12/31 02:53:26;;;;;;;4.40;4.00;;;6.00;99.90;;;;;;5049868;28;20444;-89
2023/12/31 02:55:52;;;;;;;5.40;3.93;;;5.80;99.90;;;;;;5046927;28;20216;-87
2023/12/31 02:58:17;;;;;;;4.60;4.20;;;6.20;99.90;;;;;;5045615;28;20288;-88
2023/12/31 03:00:43;;;;;;;5.20;3.90;;;5.90;99.90;;;;;;5046007;28;20242;-88
2023/12/31 03:03:08;;;;;;;4.30;3.47;;;5.60;99.90;;;;;;5046428;28;20185;-89
2023/12/31 03:05:34;;;;;;;4.20;3.60;;;6.00;99.90;;;;;;5045948;28;20209;-87
2023/12/31 03:07:59;;;;;;;5.30;3.70;;;6.50;99.90;;;;;;5043096;28;20194;-88
2023/12/31 03:10:26;;;;;;;4.70;4.07;;;6.20;99.90;;;;;;5043062;28;20185;-87
2023/12/31 03:12:51;;;;;;;4.10;3.70;;;6.70;99.90;;;;;;5048297;28;20323;-87
2023/12/31 03:15:19;;;;;;;3.47;3.17;;;7.00;99.90;;;;;;5047504;28;20201;-88
2023/12/31 03:17:44;;;;;;;4.63;4.13;;;6.50;99.90;;;;;;5048238;28;20640;-88
2023/12/31 03:20:10;;;;;;;3.50;3.20;;;6.70;99.90;;;;;;5045489;28;20185;-88
2023/12/31 03:22:36;;;;;;;3.55;3.13;;;6.90;99.90;;;;;;5043267;28;20185;-88
2023/12/31 03:25:02;;;;;;;4.93;3.70;;;7.10;99.90;;;;;;5046264;28;20205;-88
2023/12/31 03:27:27;;;;;;;3.40;3.03;;;7.00;99.90;;;;;;5046730;28;20181;-87
2023/12/31 03:29:53;;;;;;;3.43;3.10;;;7.00;99.90;;;;;;5042795;28;20182;-87
2023/12/31 03:32:18;;;;;;;4.03;3.07;;;7.00;99.90;;;;;;5047026;28;20185;-88
2023/12/31 03:34:44;;;;;;;4.13;3.43;;;6.70;99.90;;;;;;5045881;28;20275;-88
2023/12/31 03:37:09;;;;;;;3.40;3.07;;;7.00;99.90;;;;;;5045690;28;20202;-88
2023/12/31 03:39:35;;;;;;;4.63;3.10;;;7.30;99.90;;;;;;5044820;28;20711;-88
2023/12/31 03:42:00;;;;;;;3.10;2.90;;;7.10;99.90;;;;;;5045460;28;20748;-89
2023/12/31 03:44:26;;;;;;;3.13;2.83;;;7.20;99.90;;;;;;5044347;28;20197;-87
2023/12/31 03:46:51;;;;;;;3.83;3.50;;;6.70;99.90;;;;;;5046147;28;20319;-89
2023/12/31 03:49:17;;;;;;;3.30;2.97;;;7.70;99.90;;;;;;5044267;28;20209;-87
2023/12/31 03:51:42;;;;;;;3.83;3.27;;;7.30;99.90;;;;;;5043236;28;20612;-88
2023/12/31 03:54:08;;;;;;;4.20;3.20;;;7.30;99.90;;;;;;5046011;28;20213;-88
2023/12/31 03:56:34;;;;;;;3.60;3.30;;;6.80;99.90;;;;;;5045257;28;20177;-88
2023/12/31 03:59:00;;;;;;;4.20;3.47;;;7.40;99.90;;;;;;5042534;28;20637;-88
2023/12/31 04:01:25;;;;;;;4.57;3.07;;;7.60;99.90;;;;;;5046878;28;20186;-88
2023/12/31 04:03:51;;;;;;;3.57;3.20;;;7.90;99.90;;;;;;5044895;28;20236;-88
2023/12/31 04:06:16;;;;;;;4.90;3.20;;;7.40;99.90;;;;;;5044754;28;20213;-88
2023/12/31 04:08:42;;;;;;;3.43;3.13;;;7.70;99.90;;;;;;5043653;28;20197;-88
2023/12/31 04:11:07;;;;;;;3.83;3.40;;;7.00;99.90;;;;;;5054206;28;20189;-88
2023/12/31 04:13:33;;;;;;;4.50;3.50;;;7.30;99.90;;;;;;5067256;28;20183;-88
2023/12/31 04:15:58;;;;;;;3.23;2.93;;;7.70;99.90;;;;;;5051031;28;20185;-88
2023/12/31 04:18:23;;;;;;;4.83;3.10;;;6.70;99.90;;;;;;5055156;28;20213;-88
2023/12/31 04:20:49;;;;;;;3.27;2.90;;;7.30;99.90;;;;;;5047270;28;20190;-88
2023/12/31 04:23:14;;;;;;;3.63;3.27;;;7.50;99.90;;;;;;5044437;28;20623;-88
2023/12/31 04:25:40;;;;;;;3.30;3.00;;;6.90;99.90;;;;;;5041550;28;20224;-88
2023/12/31 04:28:06;;;;;;;3.70;3.40;;;7.30;99.90;;;;;;5044428;28;20835;-88
2023/12/31 04:30:31;;;;;;;3.27;3.00;;;7.20;99.90;;;;;;5040964;28;20441;-88
2023/12/31 04:32:57;;;;;;;3.73;3.20;;;7.40;99.90;;;;;;5043962;28;20185;-88
2023/12/31 04:35:23;;;;;;;3.03;2.80;;;7.30;99.90;;;;;;5044041;28;20781;-88
2023/12/31 04:37:49;;;;;;;3.20;2.90;;;7.10;99.90;;;;;;5049143;28;20217;-88
2023/12/31 04:40:15;;;;;;;3.07;2.83;;;7.30;99.90;;;;;;5054295;28;20216;-88
2023/12/31 04:42:41;;;;;;;4.05;3.65;;;7.30;99.90;;;;;;5050827;28;20615;-88
2023/12/31 04:45:07;;;;;;;3.27;2.97;;;7.10;99.90;;;;;;5051393;28;20225;-88
2023/12/31 04:47:35;;;;;;;3.33;3.03;;;7.10;99.90;;;;;;5049910;28;20186;-88
2023/12/31 04:50:00;;;;;;;3.00;2.70;;;7.00;99.90;;;;;;5062518;28;20186;-88
2023/12/31 04:52:26;;;;;;;3.40;3.07;;;7.60;99.90;;;;;;5067201;28;20197;-88
2023/12/31 04:54:51;;;;;;;3.30;3.00;;;7.00;99.90;;;;;;5058495;28;20213;-88
2023/12/31 04:57:17;;;;;;;3.67;3.30;;;7.00;99.90;;;;;;5052669;28;20547;-88
2023/12/31 04:59:42;;;;;;;3.60;2.73;;;7.40;99.90;;;;;;5048931;28;20182;-88
2023/12/31 05:02:08;;;;;;;3.50;3.07;;;7.10;99.90;;;;;;5050672;28;20193;-87
2023/12/31 05:04:33;;;;;;;3.00;2.73;;;6.90;99.90;;;;;;5051944;28;20202;-87
2023/12/31 05:06:59;;;;;;;2.83;2.30;;;7.10;99.90;;;;;;5052113;28;20651;-87
2023/12/31 05:09:25;;;;;;;3.70;3.30;;;7.30;99.90;;;;;;5056168;28;20181;-87
2023/12/31 05:11:50;;;;;;;3.07;2.77;;;7.00;99.90;;;;;;5066375;28;20417;-87
2023/12/31 05:14:16;;;;;;;3.43;3.13;;;6.90;99.90;;;;;;5067087;28;20217;-87
2023/12/31 05:16:41;;;;;;;3.23;2.80;;;6.60;99.90;;;;;;5070457;28;20185;-88
2023/12/31 05:19:07;;;;;;;3.27;2.97;;;7.40;99.90;;;;;;5065162;28;20186;-87
2023/12/31 05:21:32;;;;;;;2.97;2.73;;;7.20;99.90;;;;;;5069252;28;20204;-87
2023/12/31 05:23:58;;;;;;;3.50;3.20;;;7.00;99.90;;;;;;5069008;28;20209;-88
2023/12/31 05:26:23;;;;;;;5.20;3.10;;;6.90;99.90;;;;;;5072162;28;20193;-87
2023/12/31 05:28:49;;;;;;;3.20;2.90;;;6.90;99.90;;;;;;5066275;28;20181;-87
2023/12/31 05:31:15;;;;;;;3.27;2.97;;;7.40;99.90;;;;;;5068974;28;20174;-87
2023/12/31 05:33:43;;;;;;;3.33;3.03;;;7.00;99.90;;;;;;5068928;28;20174;-88
2023/12/31 05:36:10;;;;;;;3.10;2.90;;;7.00;99.90;;;;;;5085399;28;20189;-87
2023/12/31 05:38:35;;;;;;;2.53;2.30;;;6.90;99.90;;;;;;5070946;28;20205;-87
2023/12/31 05:41:01;;;;;;;2.83;2.63;;;6.90;99.90;;;;;;5071066;28;20211;-87
2023/12/31 05:43:26;;;;;;;3.30;3.00;;;7.10;99.90;;;;;;5065886;28;20193;-87
2023/12/31 05:45:52;;;;;;;3.17;2.87;;;6.40;99.90;;;;;;5060064;28;20205;-87
2023/12/31 05:48:17;;;;;;;2.70;2.50;;;7.10;99.90;;;;;;5046621;28;20181;-87
2023/12/31 05:50:43;;;;;;;3.70;3.40;;;7.30;99.90;;;;;;5049145;28;20185;-87
2023/12/31 05:53:08;;;;;;;4.30;3.20;;;6.80;99.90;;;;;;5044074;28;20181;-88
2023/12/31 05:55:34;;;;;;;3.03;2.73;;;7.00;99.90;;;;;;5045854;28;20205;-88
2023/12/31 05:57:59;;;;;;;3.10;2.63;;;7.40;99.90;;;;;;5044173;28;20209;-88
2023/12/31 06:00:25;;;;;;;3.60;3.27;;;7.30;99.90;;;;;;5042616;28;20186;-88
2023/12/31 06:02:50;;;;;;;5.63;3.10;;;6.70;99.90;;;;;;5046008;28;20231;-88
2023/12/31 06:05:17;;;;;;;5.03;3.57;;;6.90;99.90;;;;;;5046633;28;20284;-88
2023/12/31 06:07:43;;;;;;;3.40;3.10;;;7.00;99.90;;;;;;5048025;28;20185;-88
2023/12/31 06:10:09;;;;;;;4.17;3.10;;;6.60;99.90;;;;;;5045470;28;20200;-87
2023/12/31 06:12:34;;;;;;;4.30;3.23;;;6.50;99.90;;;;;;5047420;28;20995;-88
2023/12/31 06:15:00;;;;;;;3.00;2.73;;;6.70;99.90;;;;;;5046675;28;20471;-88
2023/12/31 06:17:28;;;;;;;5.90;3.50;;;6.10;99.90;;;;;;5051799;28;20198;-88
2023/12/31 06:19:54;;;;;;;3.40;2.80;;;6.20;99.90;;;;;;5046869;28;20181;-88
2023/12/31 06:22:20;;;;;;;3.10;2.80;;;6.10;99.90;;;;;;5043763;28;20841;-89
2023/12/31 06:24:45;;;;;;;3.90;3.50;;;6.20;99.90;;;;;;5043956;28;20328;-88
2023/12/31 06:27:11;;;;;;;3.90;2.80;;;6.50;99.90;;;;;;5045708;28;20554;-87
2023/12/31 06:29:36;;;;;;;3.30;2.73;;;6.50;99.90;;;;;;5044266;28;20185;-89
2023/12/31 06:32:02;;;;;;;3.13;2.90;;;6.00;99.90;;;;;;5045177;28;20189;-87
2023/12/31 06:34:30;;;;;;;3.33;3.03;;;7.00;99.90;;;;;;5048070;28;20209;-87
2023/12/31 06:36:56;;;;;;;2.97;2.60;;;6.70;99.90;;;;;;5044600;28;20616;-89
2023/12/31 06:39:21;;;;;;;3.77;3.30;;;7.20;99.90;;;;;;5047011;28;20264;-88
2023/12/31 06:41:47;;;;;;;2.60;2.40;;;6.80;99.90;;;;;;5046424;28;20199;-88
2023/12/31 06:44:12;;;;;;;2.57;2.37;;;6.50;99.90;;;;;;5045224;28;20230;-87
2023/12/31 06:46:38;;;;;;;2.97;2.77;;;6.90;99.90;;;;;;5048337;28;20188;-87
2023/12/31 06:49:03;;;;;;;3.10;2.30;;;6.60;99.90;;;;;;5047653;28;20560;-87
2023/12/31 06:51:29;;;;;;;3.33;2.70;;;6.90;99.90;;;;;;5046673;28;20193;-87
2023/12/31 06:53:57;;;;;;;2.60;2.40;;;7.00;99.90;;;;;;5047089;28;20205;-87
2023/12/31 06:56:22;;;;;;;3.30;2.97;;;6.70;99.90;;;;;;5044648;28;20205;-87
2023/12/31 06:58:48;;;;;;;3.70;2.90;;;7.30;99.90;;;;;;5044093;28;20392;-87
2023/12/31 07:01:14;;;;;;;2.83;2.63;;;6.90;99.90;;;;;;5043844;28;20573;-88
2023/12/31 07:03:40;;;;;;;3.43;2.70;;;7.10;99.90;;;;;;5046123;28;20182;-88
2023/12/31 07:06:07;;;;;;;3.40;3.03;;;7.20;99.90;;;;;;5045697;28;20185;-88
2023/12/31 07:08:33;;;;;;;2.80;2.60;;;7.40;99.90;;;;;;5045794;28;20550;-88
2023/12/31 07:10:58;;;;;;;3.07;2.63;;;7.00;99.90;;;;;;5042868;28;20182;-89
2023/12/31 07:13:24;;;;;;;3.10;2.80;;;7.10;99.90;;;;;;5044633;28;20197;-88
2023/12/31 07:15:50;;;;;;;3.03;2.73;;;6.80;99.90;;;;;;5045966;28;20209;-88
2023/12/31 07:18:15;;;;;;;3.30;2.73;;;7.00;99.90;;;;;;5046445;28;20252;-88
2023/12/31 07:20:41;;;;;;;4.00;2.60;;;7.20;99.90;;;;;;5045910;28;20246;-88
2023/12/31 07:23:06;;;;;;;4.13;2.73;;;7.20;99.90;;;;;;5063387;28;20193;-88
2023/12/31 07:25:32;;;;;;;2.40;2.00;;;7.10;99.90;;;;;;5057949;28;20216;-88
2023/12/31 07:28:01;;;;;;;2.13;1.92;;;7.70;99.90;;;;;;5045821;28;20236;-89
2023/12/31 07:30:27;;;;;;;3.05;2.75;;;7.50;99.90;;;;;;5042425;28;20189;-87
2023/12/31 07:32:52;;;;;;;2.77;2.43;;;7.60;99.90;;;;;;5046711;28;20186;-87
2023/12/31 07:35:18;;;;;;;2.10;1.90;;;7.60;99.90;;;;;;5046759;28;20210;-87
2023/12/31 07:37:44;;;;;;;2.13;1.97;;;8.00;99.90;;;;;;5045361;28;20285;-86
2023/12/31 07:40:10;;;;;;;2.23;2.03;;;7.80;99.90;;;;;;5045676;28;20206;-87
2023/12/31 07:42:37;;;;;;;2.22;2.03;;;7.70;99.90;;;;;;5048004;28;20426;-86
2023/12/31 07:45:04;;;;;;;2.10;1.98;;;8.20;99.90;;;;;;5061185;28;20289;-86
2023/12/31 07:47:31;;;;;;;2.65;2.25;;;8.20;99.90;;;;;;5046199;28;20186;-88
2023/12/31 07:49:57;;;;;;;2.15;1.92;;;8.50;99.90;;;;;;5045102;28;20681;-87
2023/12/31 07:52:22;;;;;;;2.03;1.77;;;7.90;99.90;;;;;;5043324;28;20193;-87
2023/12/31 07:54:48;;;;;;;2.00;1.90;;;8.30;99.90;;;;;;5041584;28;20213;-87
2023/12/31 07:57:13;;;;;;;2.00;1.90;;;8.70;99.90;;;;;;5045102;28;20217;-87
2023/12/31 07:59:39;;;;;;;2.10;1.90;;;8.70;99.90;;;;;;5044300;28;20177;-87
2023/12/31 08:02:04;;;;;;;1.97;1.80;;;9.10;99.90;;;;;;5043861;28;20584;-87
2023/12/31 08:04:31;;;;;;;2.20;2.00;;;9.00;99.90;;;;;;5045925;28;20583;-87
2023/12/31 08:06:56;;;;;;;1.98;1.85;;;8.70;99.90;;;;;;5045416;28;20212;-87
2023/12/31 08:09:23;;;;;;;3.83;2.60;;;8.80;99.90;;;;;;5039427;28;20213;-87
2023/12/31 08:11:48;;;;;;;2.10;1.92;;;8.80;99.90;;;;;;5046149;28;20277;-87
2023/12/31 08:14:14;;;;;;;2.73;2.53;;;9.00;99.90;;;;;;5044818;28;20921;-87
2023/12/31 08:16:39;;;;;;;2.27;2.07;;;8.90;99.90;;;;;;5045770;28;20184;-88
2023/12/31 08:19:05;;;;;;;2.40;2.20;;;9.20;99.90;;;;;;5044298;28;20477;-88
2023/12/31 08:21:31;;;;;;;2.90;2.60;;;9.20;99.90;;;;;;5042935;28;20177;-87
2023/12/31 08:23:56;;;;;;;2.83;2.63;;;8.90;99.90;;;;;;5038666;28;20558;-87
2023/12/31 08:26:22;;;;;;;3.67;2.63;;;9.10;99.90;;;;;;5041282;28;20441;-88
2023/12/31 08:28:47;;;;;;;4.10;2.40;;;8.60;99.90;;;;;;5041900;28;20584;-88
2023/12/31 08:31:16;;;;;;;3.23;2.27;;;9.20;99.90;;;;;;5044705;28;20210;-87
2023/12/31 08:33:43;;;;;;;3.25;2.30;;;8.60;99.90;;;;;;5043069;28;20186;-87
2023/12/31 08:36:08;;;;;;;3.00;2.80;;;9.10;99.90;;;;;;5049552;28;20346;-87
2023/12/31 08:38:34;;;;;;;3.00;2.80;;;8.90;99.90;;;;;;5048280;28;20217;-88
2023/12/31 08:41:00;;;;;;;1.87;1.73;;;8.80;99.90;;;;;;5051201;28;20262;-87
2023/12/31 08:43:25;;;;;;;2.83;2.33;;;8.80;99.90;;;;;;5049486;28;20186;-87
2023/12/31 08:45:51;;;;;;;4.20;2.90;;;9.30;99.90;;;;;;5044604;28;20449;-86
2023/12/31 08:48:21;;;;;;;4.33;2.73;;;9.60;99.90;;;;;;5051434;28;20183;-87
2023/12/31 08:50:46;;;;;;;2.40;2.20;;;9.20;99.90;;;;;;5045708;28;20191;-87
2023/12/31 08:53:12;;;;;;;2.27;2.13;;;9.30;99.90;;;;;;5048578;28;20624;-86
2023/12/31 08:55:37;;;;;;;2.30;1.80;;;9.10;99.90;;;;;;5047637;28;20210;-86
2023/12/31 08:58:03;;;;;;;2.07;1.90;;;9.30;99.90;;;;;;5048632;28;20549;-87
2023/12/31 09:00:32;;;;;;;2.97;2.70;;;9.50;99.90;;;;;;5049306;28;20188;-86
2023/12/31 09:02:58;;;;;;;2.47;2.35;;;9.50;99.90;;;;;;5049103;28;20184;-86
2023/12/31 09:05:24;;;;;;;2.35;2.17;;;9.50;99.90;;;;;;5051369;28;20252;-86
2023/12/31 09:07:50;;;;;;;2.20;2.00;;;10.00;99.20;;;;;;5048629;28;20192;-86
2023/12/31 09:10:16;;;;;;;2.53;2.10;;;9.70;99.00;;;;;;5049223;28;20193;-87
2023/12/31 09:12:42;;;;;;;1.60;1.50;;;9.30;99.10;;;;;;5048554;28;20188;-86
2023/12/31 09:15:08;;;;;;;2.10;1.90;;;9.70;98.80;;;;;;5049226;28;20214;-87
2023/12/31 09:17:35;;;;;;;3.53;2.30;;;10.00;97.50;;;;;;5047088;28;20208;-88
2023/12/31 09:20:05;;;;;;;3.97;2.10;;;9.50;98.60;;;;;;5046612;28;20184;-88
2023/12/31 09:22:32;;;;;;;2.00;1.80;;;10.00;98.10;;;;;;5048676;28;20275;-87
2023/12/31 09:24:57;;;;;;;2.88;2.10;;;10.20;97.90;;;;;;5042666;28;20219;-87
2023/12/31 09:27:23;;;;;;;2.33;1.87;;;10.00;96.90;;;;;;5050308;28;20187;-86
2023/12/31 09:29:48;;;;;;;2.00;1.80;;;10.10;97.40;;;;;;5049197;28;20263;-86
2023/12/31 09:32:14;;;;;;;1.90;1.73;;;10.10;96.90;;;;;;5049287;28;20195;-87
2023/12/31 09:34:39;;;;;;;2.40;2.20;;;10.50;97.40;;;;;;5042035;28;20204;-87
2023/12/31 09:37:05;;;;;;;2.93;2.63;;;10.00;96.50;;;;;;5062230;22;20192;-81
2023/12/31 09:39:30;;;;;;;2.80;2.13;;;9.80;97.30;;;;;;5055789;28;20226;-82
2023/12/31 09:42:03;;;;;;;2.97;2.47;;;9.50;97.30;;;;;;5052364;28;20194;-82
2023/12/31 09:44:29;;;;;;;2.20;2.00;;;9.90;97.40;;;;;;5047956;28;20203;-81
2023/12/31 09:47:11;;;;;;;2.57;2.37;;;9.60;97.80;;;;;;5049739;28;20187;-82
2023/12/31 09:49:38;;;;;;;3.05;2.75;;;9.50;97.90;;;;;;5046076;28;20969;-83
2023/12/31 09:52:07;;;;;;;3.72;2.50;;;10.30;97.70;;;;;;5049828;28;20182;-83
2023/12/31 09:54:33;;;;;;;3.38;2.83;;;10.20;97.50;;;;;;5049637;28;20299;-82
2023/12/31 09:57:00;;;;;;;2.88;2.20;;;10.20;96.90;;;;;;5048634;28;20182;-82
2023/12/31 09:59:27;;;;;;;2.45;2.25;;;10.70;96.80;;;;;;5046024;28;20192;-82
2023/12/31 10:02:06;;;;;;;2.50;2.08;;;10.80;96.50;;;;;;5050638;28;20188;-83
2023/12/31 10:04:32;;;;;;;3.75;2.22;;;10.70;95.80;;;;;;5049588;28;20214;-82
2023/12/31 10:06:58;;;;;;;3.13;2.83;;;10.50;95.40;;;;;;5052347;28;20181;-82
2023/12/31 10:09:28;;;;;;;2.60;2.40;;;10.90;95.30;;;;;;5050986;28;20435;-83
2023/12/31 10:11:54;;;;;;;2.40;2.20;;;11.30;95.10;;;;;;5048661;28;20264;-83
2023/12/31 10:14:20;;;;;;;2.45;2.25;;;11.00;94.50;;;;;;5048935;28;20205;-83
2023/12/31 10:16:47;;;;;;;2.67;2.47;;;11.00;94.60;;;;;;5047157;28;20942;-83
2023/12/31 10:19:13;;;;;;;3.10;2.58;;;11.30;94.40;;;;;;5051616;28;20205;-83
2023/12/31 10:21:41;;;;;;;2.80;2.47;;;11.80;94.90;;;;;;5048946;28;20180;-81
2023/12/31 10:24:07;;;;;;;2.80;2.50;;;10.70;94.90;;;;;;5049118;28;20645;-81
2023/12/31 10:26:33;;;;;;;3.80;2.65;;;11.20;95.30;;;;;;5049668;28;20175;-81
2023/12/31 10:28:59;;;;;;;2.97;2.58;;;11.20;94.80;;;;;;5048180;28;20185;-82
2023/12/31 10:31:25;;;;;;;2.60;2.40;;;11.10;95.20;;;;;;5051324;28;20182;-82
2023/12/31 10:33:51;;;;;;;2.78;2.55;;;11.60;95.90;;;;;;5048701;28;20574;-83
2023/12/31 10:36:22;;;;;;;4.03;3.63;;;10.60;95.30;;;;;;5050376;28;20193;-83
2023/12/31 10:38:48;;;;;;;4.00;2.70;;;11.00;95.10;;;;;;5050827;28;20212;-82
2023/12/31 10:41:24;;;;;;;3.05;2.75;;;11.20;94.60;;;;;;5050487;28;20268;-81
2023/12/31 10:43:51;;;;;;;2.80;2.45;;;11.50;94.80;;;;;;5049686;28;20184;-82
2023/12/31 10:46:19;;;;;;;2.97;2.45;;;10.80;94.40;;;;;;5053252;28;20556;-82
2023/12/31 10:48:52;;;;;;;2.67;2.47;;;11.30;94.80;;;;;;5046997;28;20178;-82
2023/12/31 10:51:22;;;;;;;3.85;3.40;;;10.70;94.70;;;;;;5047923;28;20185;-82
2023/12/31 10:53:51;;;;;;;2.67;2.45;;;11.20;94.40;;;;;;5048321;28;20687;-81
2023/12/31 10:56:18;;;;;;;3.42;3.10;;;11.50;94.90;;;;;;5050322;28;20189;-82
2023/12/31 10:58:45;;;;;;;3.20;2.90;;;11.40;94.70;;;;;;5045456;28;20220;-83
2023/12/31 11:01:11;;;;;;;3.22;3.03;;;11.60;94.80;;;;;;5049423;28;21196;-83
2023/12/31 11:03:39;;;;;;;3.17;2.88;;;11.70;94.50;;;;;;5051363;28;20239;-83
2023/12/31 11:06:06;;;;;;;4.85;4.25;;;11.50;94.30;;;;;;5046652;28;20197;-83
2023/12/31 11:08:32;;;;;;;4.75;3.50;;;11.90;94.60;;;;;;5050226;28;20212;-83
2023/12/31 11:10:58;;;;;;;3.23;2.93;;;11.30;94.40;;;;;;5048275;28;20185;-83
2023/12/31 11:13:26;;;;;;;3.73;3.00;;;11.90;94.70;;;;;;5050929;28;20496;-83
2023/12/31 11:15:54;;;;;;;3.60;3.30;;;11.40;94.50;;;;;;5047736;28;20681;-81
2023/12/31 11:18:52;;;;;;;4.28;3.83;;;12.30;94.40;;;;;;5051362;28;20217;-83
2023/12/31 11:21:45;;;;;;;4.45;3.63;;;11.70;94.60;;;;;;5046853;28;20193;-81
2023/12/31 11:24:18;;;;;;;3.60;3.30;;;11.80;94.60;;;;;;5046256;28;20197;-81
2023/12/31 11:26:44;;;;;;;3.40;3.10;;;11.40;94.00;;;;;;5056725;28;20184;-82
2023/12/31 11:29:12;;;;;;;4.10;3.70;;;11.70;94.70;;;;;;5046031;28;20190;-83
2023/12/31 11:31:41;;;;;;;4.07;3.50;;;11.20;95.00;;;;;;5055521;28;20692;-83
2023/12/31 11:34:07;;;;;;;3.67;3.38;;;11.20;95.20;;;;;;5047456;28;20224;-83
2023/12/31 11:36:33;;;;;;;3.75;3.45;;;11.20;95.30;;;;;;5050718;28;20220;-83
2023/12/31 11:39:14;;;;;;;4.77;4.23;;;11.40;95.50;;;;;;5045136;28;20212;-83
2023/12/31 11:41:47;;;;;;;3.47;3.17;;;11.70;95.90;;;;;;5044147;28;20185;-83
2023/12/31 11:44:39;;;;;;;4.18;3.20;;;11.80;96.30;;;;;;5049821;28;20330;-83
2023/12/31 11:47:12;;;;;;;4.40;3.25;;;11.60;96.50;;;;;;5049717;28;20177;-83
2023/12/31 11:49:50;;;;;;;3.72;3.30;;;12.00;97.40;;;;;;5052703;28;20188;-83
2023/12/31 11:52:19;;;;;;;2.55;2.35;;;11.50;97.80;;;;;;5047071;28;20654;-82
2023/12/31 11:54:45;;;;;;;2.75;1.88;;;11.20;98.80;;;;;;5046370;28;20214;-82
2023/12/31 11:57:11;;;;;;;3.80;1.80;;;10.80;99.50;;;;;;5049877;28;20186;-82
2023/12/31 11:59:37;;;;;;;2.33;2.00;;;10.50;99.90;;;;;;5051485;28;20213;-82
2023/12/31 12:02:05;;;;;;;2.05;1.88;;;10.60;99.90;;;;;;5049239;28;20610;-82
2023/12/31 12:04:30;;;;;;;1.88;1.77;;;10.70;99.90;;;;;;5050144;28;20625;-82
2023/12/31 12:06:56;;;;;;;2.00;1.80;;;10.60;99.90;;;;;;5041878;28;20185;-82
2023/12/31 12:09:29;;;;;;;2.20;1.50;;;10.50;99.90;;;;;;5041388;28;20210;-82
2023/12/31 12:12:06;;;;;;;1.77;1.63;;;10.50;99.90;;;;;;5050756;28;20211;-82
2023/12/31 12:14:33;;;;;;;3.70;1.33;;;10.40;99.90;;;;;;5054714;28;20245;-81
2023/12/31 12:17:00;;;;;;;1.90;1.58;;;9.80;99.90;;;;;;5061349;28;20623;-82
2023/12/31 12:19:26;;;;;;;2.10;1.63;;;9.60;99.90;;;;;;5055931;28;20216;-82
2023/12/31 12:21:53;;;;;;;1.60;1.40;;;10.00;99.90;;;;;;5060195;28;20183;-82
2023/12/31 12:24:18;;;;;;;2.25;1.38;;;9.40;99.90;;;;;;5052990;28;20204;-82
2023/12/31 12:26:47;;;;;;;1.90;1.80;;;9.30;99.90;;;;;;5053677;28;20676;-82
2023/12/31 12:29:15;;;;;;;2.05;1.60;;;10.30;99.90;;;;;;5048964;28;20685;-82
2023/12/31 12:31:52;;;;;;;2.58;2.38;;;9.50;99.90;;;;;;5048433;28;20189;-82
2023/12/31 12:34:20;;;;;;;1.70;1.60;;;10.00;99.90;;;;;;5048983;28;20217;-82
2023/12/31 12:36:47;;;;;;;2.40;2.20;;;9.70;99.90;;;;;;5048886;28;20654;-82
2023/12/31 12:39:17;;;;;;;2.13;1.25;;;10.30;99.90;;;;;;5045716;28;20272;-81
2023/12/31 12:41:45;;;;;;;1.30;1.20;;;9.50;99.90;;;;;;5045633;28;20190;-82
2023/12/31 12:44:11;;;;;;;1.35;1.17;;;9.70;99.90;;;;;;5044272;28;20615;-82
2023/12/31 12:46:39;;;;;;;3.38;1.30;;;9.40;99.90;;;;;;5047752;28;20269;-81
2023/12/31 12:49:05;;;;;;;2.40;1.40;;;10.20;99.90;;;;;;5050157;28;20190;-82
2023/12/31 12:51:30;;;;;;;2.13;1.43;;;9.90;99.90;;;;;;5052974;28;20275;-82